aviador You're here:

KELN Decoded Metar

ELLENSBURG in WA, USA
Report Time2017-07-26 21:53:00
UTC Time2017-07-26 22:40:48
Flight Rules vfr VFR
Wind090° at 06 kt
W.Decomp.*RWY 07: 6.0 kt HW 0.4 kt RCW
RWY 11: 4.9 kt HW 3.5 kt LCW
W.Rank090° ranks 7
Current wind is above 090° avg. (5.0)
Visibility9999 m
Phenomena:N/A
Clouds:N/A
Expected CloudBase > 11,600 ft AGL from Temp-Dew spread
CeilingNone
Temp36°C (ISA +24)
Dew Point07°C (17% RH)
Heat Index33.8°C
AAT33.2°C
QNH1014 hPa
Density Alt4,557 ft
Elevation1,703 ft
Report Wrong Elevation
Raw Report
METAR KELN 262153Z AUTO 09006KT 10SM CLR 36/07 A2995 RMK AO2 SLP127
T03610072=

Extra information for KELN:More info

Metar Taf Metar & Taf Last 4 Metars F.Rules Stats Wind Profile Meteogram Temp Stats Airport Information Weather charts Add Link Nearby VenuesMetar ALERT Operation Metar Decoded Social comments

AIRNAV info for KELN